Time;durP1;ratioP1;P1;durP2;ratioP2;P2;SDS_P1;SDS_P2;PMS_P1;PMS_P2;Temp;Humidity;BMP_temperature;BMP_pressure;BME280_temperature;BME280_humidity;BME280_pressure;Samples;Min_cycle;Max_cycle;Signal;HPM_P1;HPM_P2
2023/07/17 00:00:31;;;;;;;5.72;2.70;;;;;;;20.64;56.64;101443.28;7386787;19;20029;-58
2023/07/17 00:03:11;;;;;;;8.35;3.28;;;;;;;20.60;57.38;101455.34;7389535;19;20018;-58
2023/07/17 00:05:38;;;;;;;6.38;3.10;;;;;;;20.62;57.28;101455.19;7384022;19;20029;-60
2023/07/17 00:08:06;;;;;;;6.80;2.88;;;;;;;20.60;57.32;101452.63;7388514;19;20104;-58
2023/07/17 00:10:33;;;;;;;6.35;2.80;;;;;;;20.64;57.43;101445.09;7389312;19;20551;-59
2023/07/17 00:13:00;;;;;;;7.57;3.10;;;;;;;20.67;56.89;101432.16;7389095;19;20019;-59
2023/07/17 00:15:28;;;;;;;7.68;3.10;;;;;;;20.63;57.07;101444.25;7387811;19;20015;-58
2023/07/17 00:17:55;;;;;;;7.30;2.72;;;;;;;20.62;56.79;101450.66;7388550;19;20378;-57
2023/07/17 00:20:23;;;;;;;7.55;2.85;;;;;;;20.60;56.95;101452.63;7389139;19;20052;-58
2023/07/17 00:22:50;;;;;;;5.75;2.88;;;;;;;20.55;56.83;101454.97;7388285;19;20015;-58
2023/07/17 00:25:18;;;;;;;7.72;2.80;;;;;;;20.55;57.51;101454.97;7391716;19;20030;-58
2023/07/17 00:27:45;;;;;;;10.82;3.22;;;;;;;20.55;57.73;101446.06;7395685;19;20057;-59
2023/07/17 00:30:12;;;;;;;6.18;2.95;;;;;;;20.47;57.90;101449.53;7395938;19;20015;-57
2023/07/17 00:32:40;;;;;;;8.27;3.03;;;;;;;20.48;58.67;101451.22;7394122;19;20531;-59
2023/07/17 00:35:08;;;;;;;7.03;3.20;;;;;;;20.44;58.97;101444.47;7394934;19;20026;-59
2023/07/17 00:37:35;;;;;;;6.57;2.88;;;;;;;20.41;59.28;101453.72;7395798;19;20030;-60
2023/07/17 00:40:04;;;;;;;6.50;2.80;;;;;;;20.41;59.34;101451.03;7395481;19;20745;-59
2023/07/17 00:42:31;;;;;;;5.47;2.53;;;;;;;20.39;59.08;101452.19;7393171;19;20011;-59
2023/07/17 00:44:58;;;;;;;6.68;2.97;;;;;;;20.37;59.03;101448.78;7394940;19;20022;-59
2023/07/17 00:47:27;;;;;;;7.82;3.28;;;;;;;20.36;59.10;101458.72;7393144;19;20555;-59
2023/07/17 00:49:55;;;;;;;6.82;2.70;;;;;;;20.42;59.08;101458.09;7395190;19;20015;-59
2023/07/17 00:52:23;;;;;;;8.25;3.20;;;;;;;20.32;59.18;101453.81;7394911;19;20018;-59
2023/07/17 00:54:51;;;;;;;7.45;2.72;;;;;;;20.39;58.55;101455.72;7394765;19;20090;-59
2023/07/17 00:57:19;;;;;;;7.25;3.30;;;;;;;20.37;58.33;101446.09;7393063;19;20373;-57
2023/07/17 00:59:48;;;;;;;6.97;3.25;;;;;;;20.35;58.36;101442.75;7394614;19;20520;-58
2023/07/17 01:02:15;;;;;;;7.65;3.10;;;;;;;20.37;58.56;101438.88;7392758;19;20022;-57
2023/07/17 01:04:45;;;;;;;7.38;2.88;;;;;;;20.45;57.98;101452.41;7392955;19;20023;-57
2023/07/17 01:07:14;;;;;;;6.03;3.00;;;;;;;20.38;58.40;101442.44;7392375;19;20031;-58
2023/07/17 01:09:41;;;;;;;7.20;2.88;;;;;;;20.43;57.84;101450.88;7394351;19;20019;-57
2023/07/17 01:12:09;;;;;;;7.60;3.20;;;;;;;20.47;57.64;101452.22;7394696;19;20737;-58
2023/07/17 01:14:37;;;;;;;6.90;2.72;;;;;;;20.47;57.49;101449.53;7394201;19;20518;-59
2023/07/17 01:17:04;;;;;;;6.70;3.13;;;;;;;20.39;57.71;101455.72;7392427;19;20022;-59
2023/07/17 01:19:31;;;;;;;6.15;2.58;;;;;;;20.34;57.69;101449.97;7394759;19;20390;-58
2023/07/17 01:22:01;;;;;;;6.70;3.20;;;;;;;20.34;58.03;101460.75;7392748;19;20014;-59
2023/07/17 01:24:28;;;;;;;7.07;3.20;;;;;;;20.37;58.01;101456.88;7393973;19;20036;-59
2023/07/17 01:26:55;;;;;;;7.13;2.80;;;;;;;20.28;58.13;101466.75;7391762;19;20023;-58
2023/07/17 01:29:23;;;;;;;6.25;3.00;;;;;;;20.21;57.96;101463.84;7394329;19;20503;-55
2023/07/17 01:31:50;;;;;;;6.55;2.83;;;;;;;20.18;58.39;101466.00;7393821;19;20014;-58
2023/07/17 01:34:17;;;;;;;5.90;2.63;;;;;;;20.18;58.15;101466.00;7397091;19;20011;-58
2023/07/17 01:36:45;;;;;;;9.27;3.10;;;;;;;20.09;58.27;101483.09;7389086;19;20530;-59
2023/07/17 01:39:12;;;;;;;8.15;3.00;;;;;;;20.10;57.99;101479.41;7393739;19;20018;-58
2023/07/17 01:41:40;;;;;;;6.78;2.63;;;;;;;20.06;57.98;101494.16;7393067;19;20044;-57
2023/07/17 01:44:07;;;;;;;9.75;3.30;;;;;;;19.99;58.10;101482.34;7391738;19;20031;-57
2023/07/17 01:46:34;;;;;;;6.95;3.20;;;;;;;20.03;57.95;101481.88;7392132;19;20439;-59
2023/07/17 01:49:03;;;;;;;8.57;2.92;;;;;;;20.00;57.88;101482.22;7393158;19;20010;-58
2023/07/17 01:51:33;;;;;;;8.00;3.10;;;;;;;20.03;57.53;101489.09;7393572;19;20074;-59
2023/07/17 01:54:00;;;;;;;5.78;2.78;;;;;;;19.93;57.72;101478.44;7393221;19;20467;-58
2023/07/17 01:56:28;;;;;;;7.68;3.20;;;;;;;19.96;56.85;101480.84;7391159;19;20018;-59
2023/07/17 01:58:55;;;;;;;8.40;3.22;;;;;;;19.99;56.85;101476.97;7392954;19;20089;-58
2023/07/17 02:01:22;;;;;;;8.27;2.90;;;;;;;19.96;56.67;101480.84;7392425;19;20024;-57
2023/07/17 02:03:49;;;;;;;8.13;3.33;;;;;;;19.97;56.33;101482.50;7393480;19;20018;-57
2023/07/17 02:06:17;;;;;;;8.57;3.20;;;;;;;20.02;56.49;101480.19;7390837;19;20554;-59
2023/07/17 02:08:44;;;;;;;7.40;3.10;;;;;;;20.04;56.00;101480.06;7392492;19;20018;-58
2023/07/17 02:11:11;;;;;;;6.78;3.00;;;;;;;19.96;56.26;101480.84;7392540;19;20043;-59
2023/07/17 02:13:38;;;;;;;8.35;3.47;;;;;;;19.88;56.57;101483.44;7392709;19;20047;-58
2023/07/17 02:16:05;;;;;;;6.93;3.40;;;;;;;19.81;56.81;101480.53;7390769;19;20011;-58
2023/07/17 02:18:33;;;;;;;8.10;3.13;;;;;;;19.87;57.03;101485.28;7392632;19;20018;-57
2023/07/17 02:21:00;;;;;;;9.55;3.50;;;;;;;19.83;56.97;101491.97;7391733;19;20018;-58
2023/07/17 02:23:28;;;;;;;7.97;3.28;;;;;;;19.84;57.58;101496.38;7392503;19;20026;-57
2023/07/17 02:25:55;;;;;;;7.03;3.10;;;;;;;19.86;57.04;101494.34;7390326;19;20018;-58
2023/07/17 02:28:22;;;;;;;8.32;3.20;;;;;;;19.80;57.44;101483.38;7391795;19;20022;-58
2023/07/17 02:30:49;;;;;;;7.60;2.83;;;;;;;19.82;57.65;101482.22;7392327;19;20026;-57
2023/07/17 02:33:17;;;;;;;9.48;3.50;;;;;;;19.78;57.28;101483.53;7391827;19;20704;-58
2023/07/17 02:35:44;;;;;;;9.25;3.55;;;;;;;19.71;57.42;101486.00;7390341;19;20100;-58
2023/07/17 02:38:11;;;;;;;7.95;3.20;;;;;;;19.76;57.29;101498.13;7391706;19;20026;-59
2023/07/17 02:40:38;;;;;;;9.82;3.15;;;;;;;19.77;57.55;101497.16;7390082;19;20015;-58
2023/07/17 02:43:07;;;;;;;8.77;3.38;;;;;;;19.74;58.00;101497.44;7389592;19;20051;-60
2023/07/17 02:45:36;;;;;;;8.30;3.25;;;;;;;19.72;58.06;101500.28;7390857;19;20022;-58
2023/07/17 02:48:04;;;;;;;8.43;3.42;;;;;;;19.74;58.11;101492.91;7388680;19;20022;-58
2023/07/17 02:50:31;;;;;;;8.38;3.13;;;;;;;19.72;57.85;101486.84;7391609;19;20378;-58
2023/07/17 02:52:59;;;;;;;9.50;3.38;;;;;;;19.70;57.97;101489.69;7391263;19;20014;-58
2023/07/17 02:55:26;;;;;;;8.45;3.50;;;;;;;19.79;57.62;101487.91;7390590;19;20026;-57
2023/07/17 02:57:53;;;;;;;8.45;3.30;;;;;;;19.83;58.00;101488.44;7390945;19;20086;-57
2023/07/17 03:00:21;;;;;;;8.85;3.42;;;;;;;19.72;57.73;101489.53;7390732;19;20031;-58
2023/07/17 03:02:50;;;;;;;7.03;3.20;;;;;;;19.62;57.85;101481.56;7390395;19;20022;-58
2023/07/17 03:05:18;;;;;;;11.98;3.83;;;;;;;19.67;58.31;101499.91;7390247;19;20042;-59
2023/07/17 03:07:46;;;;;;;7.88;3.33;;;;;;;19.67;58.03;101502.59;7391275;19;20019;-59
2023/07/17 03:10:14;;;;;;;6.40;2.95;;;;;;;19.68;58.22;101504.28;7389554;19;20022;-59
2023/07/17 03:12:42;;;;;;;8.00;3.25;;;;;;;19.68;58.35;101512.34;7389507;19;20409;-59
2023/07/17 03:15:10;;;;;;;8.27;3.30;;;;;;;19.76;57.63;101509.72;7389581;19;20027;-59
2023/07/17 03:17:37;;;;;;;9.00;3.30;;;;;;;19.72;57.71;101508.34;7390911;19;20018;-59
2023/07/17 03:20:06;;;;;;;7.57;3.55;;;;;;;19.72;57.97;101508.34;7390572;19;20054;-58
2023/07/17 03:22:33;;;;;;;7.65;3.63;;;;;;;19.72;57.83;101517.25;7389159;19;20018;-58
2023/07/17 03:25:02;;;;;;;6.85;3.20;;;;;;;19.81;57.68;101517.34;7389948;19;20407;-58
2023/07/17 03:27:29;;;;;;;7.07;3.08;;;;;;;19.79;57.82;101512.09;7388955;19;20042;-58
2023/07/17 03:29:57;;;;;;;7.03;3.00;;;;;;;19.72;58.05;101509.19;7389299;19;20019;-57
2023/07/17 03:32:24;;;;;;;10.18;3.10;;;;;;;19.65;58.29;101516.19;7389836;19;20014;-53
2023/07/17 03:34:51;;;;;;;6.97;3.45;;;;;;;19.64;58.39;101527.06;7392824;19;20525;-51
2023/07/17 03:37:18;;;;;;;8.25;3.00;;;;;;;19.64;58.64;101519.00;7388180;19;20025;-54
2023/07/17 03:39:46;;;;;;;7.78;3.10;;;;;;;19.70;58.37;101521.94;7389876;19;20047;-54
2023/07/17 03:42:14;;;;;;;13.20;3.58;;;;;;;19.76;58.21;101525.00;7387134;19;20058;-58
2023/07/17 03:44:41;;;;;;;8.85;3.38;;;;;;;19.58;58.74;101528.50;7387464;19;20085;-58
2023/07/17 03:47:08;;;;;;;8.00;3.60;;;;;;;19.66;58.15;101531.31;7388200;19;20051;-58
2023/07/17 03:49:36;;;;;;;7.40;3.20;;;;;;;19.70;58.28;101526.47;7390017;19;20082;-59
2023/07/17 03:52:04;;;;;;;8.52;3.28;;;;;;;19.72;58.29;101532.53;7389348;19;20023;-58
2023/07/17 03:54:33;;;;;;;8.48;3.17;;;;;;;19.70;58.23;101531.84;7389407;19;20021;-58
2023/07/17 03:57:00;;;;;;;9.00;3.22;;;;;;;19.70;58.14;101530.00;7387895;19;20015;-58
2023/07/17 03:59:27;;;;;;;7.82;3.25;;;;;;;19.61;58.58;101530.03;7390359;19;20024;-59
2023/07/17 04:01:55;;;;;;;9.13;3.22;;;;;;;19.66;58.74;101531.31;7396263;19;20487;-59
2023/07/17 04:04:22;;;;;;;8.77;3.40;;;;;;;19.66;58.34;101534.00;7396599;19;20476;-59
2023/07/17 04:06:49;;;;;;;7.75;3.00;;;;;;;19.71;58.37;101544.28;7394547;19;20389;-58
2023/07/17 04:09:16;;;;;;;7.03;3.10;;;;;;;19.61;58.44;101538.09;7397037;19;20404;-58
2023/07/17 04:11:46;;;;;;;7.15;3.35;;;;;;;19.64;58.51;101541.34;7396874;19;20035;-58
2023/07/17 04:14:14;;;;;;;10.18;3.65;;;;;;;19.68;58.47;101537.34;7396529;19;20014;-59
2023/07/17 04:16:42;;;;;;;8.73;3.28;;;;;;;19.67;58.45;101548.28;7393998;19;20023;-58
2023/07/17 04:19:09;;;;;;;8.60;3.35;;;;;;;19.61;58.88;101541.66;7395923;19;20019;-59
2023/07/17 04:21:36;;;;;;;8.10;3.55;;;;;;;19.61;58.87;101538.97;7395845;19;20014;-59
2023/07/17 04:24:04;;;;;;;8.18;3.00;;;;;;;19.66;58.59;101539.38;7396328;19;20018;-58
2023/07/17 04:26:31;;;;;;;8.25;3.40;;;;;;;19.59;58.80;101551.69;7393593;19;20043;-57
2023/07/17 04:28:58;;;;;;;9.13;3.30;;;;;;;19.53;59.27;101543.38;7396077;19;20014;-58
2023/07/17 04:31:25;;;;;;;8.98;3.40;;;;;;;19.57;59.34;101547.47;7395754;19;20026;-58
2023/07/17 04:33:53;;;;;;;12.98;3.38;;;;;;;19.63;59.21;101547.72;7398751;19;20349;-57
2023/07/17 04:36:20;;;;;;;8.77;3.22;;;;;;;19.57;59.25;101540.25;7393576;19;20018;-56
2023/07/17 04:38:47;;;;;;;8.45;3.65;;;;;;;19.66;58.88;101558.19;7396224;19;20538;-56
2023/07/17 04:41:15;;;;;;;6.25;2.80;;;;;;;19.54;59.30;101554.00;7395330;19;20137;-57
2023/07/17 04:43:43;;;;;;;7.80;3.15;;;;;;;19.50;59.72;101552.63;7392074;19;20022;-58
2023/07/17 04:46:10;;;;;;;6.85;2.95;;;;;;;19.45;59.60;101555.72;7393582;19;20027;-58
2023/07/17 04:48:38;;;;;;;7.88;3.17;;;;;;;19.55;59.24;101560.22;7395361;19;20033;-58
2023/07/17 04:51:06;;;;;;;10.52;3.70;;;;;;;19.63;59.22;101569.22;7394791;19;20491;-58
2023/07/17 04:53:34;;;;;;;9.65;3.40;;;;;;;19.61;59.45;101568.53;7395498;19;20432;-58
2023/07/17 04:56:01;;;;;;;7.68;3.40;;;;;;;19.65;58.85;101563.69;7394165;19;20025;-58
2023/07/17 04:58:32;;;;;;;7.53;2.90;;;;;;;19.69;59.29;101567.78;7395149;19;20048;-58
2023/07/17 05:01:00;;;;;;;9.52;3.53;;;;;;;19.76;59.11;101573.38;7395822;19;20014;-58
2023/07/17 05:03:27;;;;;;;7.63;3.47;;;;;;;19.69;59.22;101562.41;7392862;19;20015;-58
2023/07/17 05:05:56;;;;;;;6.53;2.88;;;;;;;19.67;59.46;101557.19;7392215;19;20364;-58
2023/07/17 05:08:25;;;;;;;7.10;2.88;;;;;;;19.67;59.38;101562.56;7395217;19;20023;-59
2023/07/17 05:10:56;;;;;;;8.85;3.30;;;;;;;19.67;59.41;101557.19;7394360;19;20334;-60
2023/07/17 05:13:24;;;;;;;7.38;3.08;;;;;;;19.55;59.67;101569.13;7394480;19;20022;-59
2023/07/17 05:15:51;;;;;;;8.43;3.35;;;;;;;19.55;59.69;101568.28;7393696;19;20022;-60
2023/07/17 05:18:19;;;;;;;9.98;3.72;;;;;;;19.52;59.86;101555.97;7392261;19;20043;-59
2023/07/17 05:20:48;;;;;;;7.57;3.25;;;;;;;19.48;59.96;101566.19;7394409;19;20014;-59
2023/07/17 05:23:15;;;;;;;8.25;3.13;;;;;;;19.47;60.00;101558.28;7392958;19;20055;-59
2023/07/17 05:25:53;;;;;;;8.05;3.25;;;;;;;19.57;59.69;101560.88;7393313;19;20014;-58
2023/07/17 05:28:21;;;;;;;9.55;3.58;;;;;;;19.58;60.03;101562.59;7394475;19;20034;-58
2023/07/17 05:30:52;;;;;;;9.25;3.53;;;;;;;19.61;59.76;101557.78;7394147;19;20048;-58
2023/07/17 05:33:20;;;;;;;8.07;3.00;;;;;;;19.59;60.08;101561.59;7395395;19;20022;-59
2023/07/17 05:35:48;;;;;;;7.53;3.05;;;;;;;19.60;60.07;101565.97;7392607;19;20138;-59
2023/07/17 05:38:15;;;;;;;9.13;3.50;;;;;;;19.61;60.14;101559.59;7394801;19;20039;-59
2023/07/17 05:40:42;;;;;;;7.78;2.97;;;;;;;19.54;60.60;101561.22;7393751;19;20018;-59
2023/07/17 05:43:10;;;;;;;7.13;3.00;;;;;;;19.63;60.63;101561.16;7392492;19;20026;-59
2023/07/17 05:45:37;;;;;;;6.50;2.88;;;;;;;19.62;60.55;101564.88;7392613;19;20487;-59
2023/07/17 05:48:05;;;;;;;7.03;3.00;;;;;;;19.60;60.80;101553.38;7393324;19;20030;-58
2023/07/17 05:50:32;;;;;;;8.90;3.28;;;;;;;19.71;60.52;101565.78;7392684;19;20014;-59
2023/07/17 05:52:59;;;;;;;8.13;3.88;;;;;;;19.66;60.56;101566.25;7393485;19;20377;-58
2023/07/17 05:55:28;;;;;;;11.23;3.50;;;;;;;19.76;60.77;101571.53;7392180;19;20015;-59
2023/07/17 05:57:55;;;;;;;8.98;3.50;;;;;;;19.65;61.13;101564.56;7392400;19;20093;-59
2023/07/17 06:00:22;;;;;;;10.00;3.65;;;;;;;19.59;61.15;101562.44;7391466;19;20484;-58
2023/07/17 06:02:49;;;;;;;11.45;3.65;;;;;;;19.55;61.68;101569.13;7391759;19;20018;-59
2023/07/17 06:05:17;;;;;;;10.85;3.63;;;;;;;19.61;60.83;101573.03;7391982;19;20401;-59
2023/07/17 06:07:44;;;;;;;11.30;3.60;;;;;;;19.66;60.94;101576.16;7391078;19;20021;-59
2023/07/17 06:10:12;;;;;;;7.60;3.08;;;;;;;19.67;60.81;101578.69;7392344;19;20026;-58
2023/07/17 06:12:40;;;;;;;6.90;2.88;;;;;;;19.64;61.00;101575.44;7392698;19;20015;-59
2023/07/17 06:15:09;;;;;;;10.00;3.80;;;;;;;19.66;61.11;101585.06;7391747;19;20028;-60
2023/07/17 06:17:37;;;;;;;8.57;3.58;;;;;;;19.66;60.87;101577.00;7390169;19;20018;-59
2023/07/17 06:20:08;;;;;;;8.57;3.25;;;;;;;19.60;61.09;101576.72;7392673;19;20047;-59
2023/07/17 06:22:35;;;;;;;9.32;3.58;;;;;;;19.64;60.66;101576.28;7390197;19;20018;-60
2023/07/17 06:25:03;;;;;;;10.02;3.60;;;;;;;19.68;61.00;101576.84;7389906;19;20015;-59
2023/07/17 06:27:32;;;;;;;9.95;3.47;;;;;;;19.77;60.65;101583.16;7390390;19;20480;-59
2023/07/17 06:29:59;;;;;;;8.00;3.22;;;;;;;19.85;60.59;101592.13;7392040;19;20042;-59
2023/07/17 06:32:27;;;;;;;8.15;3.30;;;;;;;19.81;60.92;101587.22;7391684;19;20110;-59
2023/07/17 06:34:55;;;;;;;7.45;3.10;;;;;;;19.77;60.63;101580.47;7391350;19;20015;-58
2023/07/17 06:37:22;;;;;;;9.75;3.25;;;;;;;19.78;60.18;101593.75;7388896;19;20558;-58
2023/07/17 06:39:50;;;;;;;10.45;3.13;;;;;;;19.75;60.12;101594.03;7392137;19;20030;-59
2023/07/17 06:42:17;;;;;;;9.55;3.35;;;;;;;19.67;59.98;101585.91;7390996;19;20018;-58
2023/07/17 06:44:44;;;;;;;10.77;3.53;;;;;;;19.77;60.00;101596.59;7390372;19;20029;-58
2023/07/17 06:47:11;;;;;;;9.20;3.42;;;;;;;19.82;59.95;101587.06;7390115;19;20006;-57
2023/07/17 06:49:56;;;;;;;7.82;3.05;;;;;;;19.89;59.67;101598.06;7391627;19;20049;-57
2023/07/17 06:52:24;;;;;;;10.93;2.95;;;;;;;19.95;59.51;101602.81;7391596;19;20107;-57
2023/07/17 06:54:51;;;;;;;9.18;3.17;;;;;;;19.93;58.89;101605.66;7388952;19;20047;-60
2023/07/17 06:57:23;;;;;;;8.43;3.42;;;;;;;19.93;58.91;101620.94;7390165;19;20018;-59
2023/07/17 06:59:50;;;;;;;8.52;2.70;;;;;;;19.93;58.46;101615.56;7391618;19;20022;-61
2023/07/17 07:02:18;;;;;;;8.13;2.88;;;;;;;19.94;58.04;101620.78;7390588;19;20098;-61
2023/07/17 07:04:45;;;;;;;9.35;2.72;;;;;;;19.92;57.68;101616.56;7390683;19;20022;-59
2023/07/17 07:07:12;;;;;;;7.82;2.85;;;;;;;20.01;57.92;101623.72;7388924;19;20014;-60
2023/07/17 07:09:43;;;;;;;8.98;2.67;;;;;;;20.01;57.52;101615.66;7390913;19;20018;-59
2023/07/17 07:12:10;;;;;;;6.57;2.42;;;;;;;19.98;57.16;101621.31;7390447;19;20018;-58
2023/07/17 07:14:37;;;;;;;8.13;2.53;;;;;;;20.05;56.90;101617.03;7390185;19;20035;-58
2023/07/17 07:17:05;;;;;;;7.15;2.70;;;;;;;20.10;57.06;101627.31;7389548;19;20014;-58
2023/07/17 07:19:32;;;;;;;7.45;2.60;;;;;;;20.23;56.75;101622.41;7390505;19;20019;-57
2023/07/17 07:21:59;;;;;;;8.00;2.50;;;;;;;20.22;56.69;101623.38;7390289;19;20022;-58
2023/07/17 07:24:27;;;;;;;8.23;2.50;;;;;;;20.29;56.48;101629.84;7388140;19;20022;-57
2023/07/17 07:26:54;;;;;;;7.00;2.35;;;;;;;20.32;55.63;101621.47;7388828;19;20025;-57
2023/07/17 07:29:22;;;;;;;6.22;2.33;;;;;;;20.25;56.19;101622.25;7390290;19;20022;-57
2023/07/17 07:31:49;;;;;;;8.18;2.65;;;;;;;20.30;55.40;101631.56;7390136;19;20036;-58
2023/07/17 07:34:16;;;;;;;5.80;2.35;;;;;;;20.29;55.02;101618.25;7394320;19;20018;-59
2023/07/17 07:36:43;;;;;;;7.95;2.80;;;;;;;20.27;54.89;101621.09;7395270;19;20014;-59
2023/07/17 07:39:11;;;;;;;7.13;2.42;;;;;;;20.37;54.46;101626.38;7397355;19;20022;-58
2023/07/17 07:41:38;;;;;;;8.23;2.58;;;;;;;20.35;54.00;101631.91;7397448;19;20167;-58
2023/07/17 07:44:06;;;;;;;8.15;2.50;;;;;;;20.44;53.68;101639.03;7395437;19;20015;-59
2023/07/17 07:46:36;;;;;;;7.60;2.15;;;;;;;20.43;53.54;101640.06;7395640;19;20036;-59
2023/07/17 07:49:03;;;;;;;10.15;3.25;;;;;;;20.43;53.02;101640.06;7397104;19;20019;-59
2023/07/17 07:51:30;;;;;;;6.80;2.40;;;;;;;20.43;53.45;101634.69;7396969;19;20018;-59
2023/07/17 07:53:58;;;;;;;6.63;2.33;;;;;;;20.51;52.60;101638.47;7397302;19;20019;-59
2023/07/17 07:56:25;;;;;;;7.05;2.70;;;;;;;20.51;52.44;101636.63;7395560;19;20018;-59
2023/07/17 07:58:52;;;;;;;11.00;3.17;;;;;;;20.53;53.39;101652.59;7397012;19;20018;-58
2023/07/17 08:01:19;;;;;;;7.55;2.72;;;;;;;20.54;53.28;101639.00;7395363;19;20031;-57
2023/07/17 08:03:47;;;;;;;8.10;2.50;;;;;;;20.64;53.25;101653.22;7395664;19;20022;-59
2023/07/17 08:06:15;;;;;;;9.07;2.67;;;;;;;20.74;53.01;101649.56;7395491;19;20019;-59
2023/07/17 08:08:43;;;;;;;8.65;2.60;;;;;;;20.77;52.90;101647.41;7400285;19;20026;-62
2023/07/17 08:11:10;;;;;;;7.65;2.97;;;;;;;20.82;52.82;101649.63;7394829;19;20026;-59
2023/07/17 08:13:37;;;;;;;10.40;2.72;;;;;;;20.90;52.88;101661.28;7396632;19;20014;-60
2023/07/17 08:16:04;;;;;;;7.28;2.90;;;;;;;20.99;52.16;101662.19;7393375;19;20437;-60
2023/07/17 08:18:32;;;;;;;8.20;2.65;;;;;;;21.04;51.66;101656.34;7395641;19;20160;-59
2023/07/17 08:20:59;;;;;;;7.90;3.10;;;;;;;21.09;51.54;101656.69;7394313;19;20033;-59
2023/07/17 08:23:27;;;;;;;7.97;2.60;;;;;;;21.15;51.08;101654.22;7395597;19;20022;-59
2023/07/17 08:25:55;;;;;;;10.25;2.88;;;;;;;21.18;50.04;101664.66;7395217;19;20026;-60
2023/07/17 08:28:22;;;;;;;8.07;2.70;;;;;;;21.29;49.72;101649.22;7394125;19;20126;-59
2023/07/17 08:30:52;;;;;;;8.32;2.88;;;;;;;21.27;49.91;101653.94;7397494;19;20022;-59
2023/07/17 08:33:20;;;;;;;7.65;2.90;;;;;;;21.34;49.68;101661.25;7397303;19;20368;-60
2023/07/17 08:35:48;;;;;;;9.27;3.00;;;;;;;21.41;49.64;101656.06;7394882;19;20043;-60
2023/07/17 08:38:16;;;;;;;11.48;3.28;;;;;;;21.42;49.84;101655.88;7395611;19;20114;-59
2023/07/17 08:40:50;;;;;;;8.15;2.83;;;;;;;21.47;48.93;101657.25;7395613;19;20039;-60
2023/07/17 08:43:17;;;;;;;8.15;2.92;;;;;;;21.33;49.68;101651.47;7394495;19;20018;-60
2023/07/17 08:45:46;;;;;;;7.82;2.88;;;;;;;21.33;49.21;101666.78;7393346;19;20018;-60
2023/07/17 08:48:15;;;;;;;8.98;3.33;;;;;;;21.37;49.47;101657.38;7395657;19;20078;-59
2023/07/17 08:50:43;;;;;;;9.82;3.00;;;;;;;21.59;49.18;101669.41;7394933;19;20039;-60
2023/07/17 08:53:11;;;;;;;7.40;3.15;;;;;;;21.74;48.86;101669.63;7395665;19;20043;-59
2023/07/17 08:55:41;;;;;;;8.68;3.00;;;;;;;21.78;48.46;101677.22;7393477;19;20011;-59
2023/07/17 08:58:10;;;;;;;9.68;3.50;;;;;;;21.75;48.29;101665.94;7395453;19;20043;-60
2023/07/17 09:00:39;;;;;;;7.88;3.15;;;;;;;21.70;48.40;101663.72;7395304;19;20388;-59
2023/07/17 09:03:07;;;;;;;8.10;3.63;;;;;;;21.54;48.30;101667.22;7392832;19;20022;-59
2023/07/17 09:05:35;;;;;;;10.15;3.13;;;;;;;21.58;47.57;101665.88;7393720;19;20018;-59
2023/07/17 09:08:02;;;;;;;12.45;3.60;;;;;;;21.60;48.20;101668.44;7395208;19;20018;-59
2023/07/17 09:10:30;;;;;;;9.68;3.47;;;;;;;21.61;48.36;101664.72;7394789;19;20014;-59
2023/07/17 09:12:59;;;;;;;8.77;3.13;;;;;;;21.86;47.12;101663.78;7394102;19;20014;-59
2023/07/17 09:15:29;;;;;;;10.30;3.70;;;;;;;21.80;46.89;101666.31;7394414;19;20022;-59
2023/07/17 09:17:56;;;;;;;8.50;3.15;;;;;;;21.61;47.07;101673.66;7392881;19;20504;-59
2023/07/17 09:20:24;;;;;;;8.85;3.58;;;;;;;21.47;47.16;101673.41;7394855;19;20020;-59
2023/07/17 09:23:01;;;;;;;9.45;3.83;;;;;;;21.55;47.24;101658.13;7394472;19;20021;-59
2023/07/17 09:25:30;;;;;;;10.82;3.60;;;;;;;21.49;47.18;101653.41;7393625;19;20026;-60
2023/07/17 09:27:57;;;;;;;9.75;3.05;;;;;;;21.32;47.91;101670.44;7393968;19;20019;-59
2023/07/17 09:30:26;;;;;;;9.23;3.50;;;;;;;21.29;48.02;101668.06;7394129;19;20047;-60
2023/07/17 09:33:04;;;;;;;9.55;3.40;;;;;;;21.29;48.08;101668.94;7394670;19;20071;-59
2023/07/17 09:35:32;;;;;;;8.68;3.50;;;;;;;21.45;47.98;101668.19;7392989;19;20112;-59
2023/07/17 09:37:59;;;;;;;10.30;3.58;;;;;;;21.68;47.60;101671.16;7392422;19;20763;-59
2023/07/17 09:40:27;;;;;;;10.43;3.78;;;;;;;21.85;47.29;101672.03;7393452;19;20018;-59
2023/07/17 09:42:55;;;;;;;10.93;4.03;;;;;;;21.95;47.04;101670.03;7394175;19;20023;-59
2023/07/17 09:45:24;;;;;;;8.82;3.78;;;;;;;22.16;46.37;101675.00;7393076;19;20022;-59
2023/07/17 09:47:52;;;;;;;10.45;3.63;;;;;;;22.14;45.91;101671.63;7392092;19;20018;-59
2023/07/17 09:50:22;;;;;;;9.25;3.22;;;;;;;22.01;46.94;101674.75;7393035;19;20014;-59
2023/07/17 09:52:50;;;;;;;8.18;3.45;;;;;;;21.62;47.28;101688.81;7393588;19;20014;-59
2023/07/17 09:55:20;;;;;;;9.07;3.35;;;;;;;21.45;48.33;101672.75;7392697;19;20492;-59
2023/07/17 09:57:51;;;;;;;8.95;3.40;;;;;;;21.41;48.17;101696.47;7389137;19;20014;-60
2023/07/17 10:00:21;;;;;;;8.20;3.67;;;;;;;21.50;48.33;101702.75;7391612;19;20022;-59
2023/07/17 10:03:00;;;;;;;9.95;3.65;;;;;;;21.63;47.98;101687.78;7392641;19;20490;-60
2023/07/17 10:05:30;;;;;;;13.88;3.85;;;;;;;21.67;48.67;101677.53;7392652;19;20127;-59
2023/07/17 10:07:58;;;;;;;9.82;3.60;;;;;;;21.75;48.18;101690.19;7392705;19;20041;-59
2023/07/17 10:10:26;;;;;;;10.27;3.63;;;;;;;21.69;48.16;101693.56;7393351;19;20015;-60
2023/07/17 10:12:54;;;;;;;10.93;4.10;;;;;;;21.66;47.88;101694.72;7391214;19;20014;-61
2023/07/17 10:15:21;;;;;;;7.93;3.53;;;;;;;21.57;48.63;101701.94;7392280;19;20519;-60
2023/07/17 10:17:57;;;;;;;7.75;3.58;;;;;;;21.54;48.46;101698.72;7389460;19;20022;-60
2023/07/17 10:20:29;;;;;;;8.07;3.45;;;;;;;21.60;48.84;101701.63;7392615;19;20043;-59
2023/07/17 10:22:56;;;;;;;10.23;3.70;;;;;;;21.60;49.88;101693.53;7392709;19;20043;-59
2023/07/17 10:25:27;;;;;;;9.70;3.80;;;;;;;21.61;50.18;101713.25;7389470;19;20045;-60
2023/07/17 10:28:03;;;;;;;10.13;3.65;;;;;;;21.71;49.18;101692.41;7391017;19;20018;-60
2023/07/17 10:30:33;;;;;;;10.50;3.80;;;;;;;21.84;48.61;101700.03;7391647;19;20491;-59
2023/07/17 10:33:06;;;;;;;11.80;3.70;;;;;;;22.22;47.89;101701.31;7393540;19;20018;-59
2023/07/17 10:36:00;;;;;;;9.52;3.30;;;;;;;22.37;47.25;101699.66;7390746;19;20029;-60
2023/07/17 10:38:38;;;;;;;9.30;3.50;;;;;;;22.43;47.38;101705.38;7392231;19;20043;-60
2023/07/17 10:41:24;;;;;;;8.43;3.30;;;;;;;22.54;47.36;101696.97;7392244;19;20038;-59
2023/07/17 10:43:52;;;;;;;8.98;3.38;;;;;;;22.57;46.87;101699.31;7397073;19;20015;-59
2023/07/17 10:46:40;;;;;;;9.70;3.58;;;;;;;22.77;46.83;101703.38;7389525;19;20033;-59
2023/07/17 10:49:12;;;;;;;8.18;3.30;;;;;;;23.05;45.99;101698.47;7390940;19;20483;-59
2023/07/17 10:54:21;;;;;;;8.40;3.38;;;;;;;23.19;45.54;101698.78;7391655;19;20018;-59
2023/07/17 10:56:50;;;;;;;7.38;3.13;;;;;;;23.00;45.96;101698.13;7390224;19;20010;-60
2023/07/17 10:59:18;;;;;;;8.93;3.30;;;;;;;22.92;46.25;101700.84;7390894;19;20014;-60
2023/07/17 11:01:46;;;;;;;8.48;3.33;;;;;;;23.03;45.84;101707.75;7390903;19;20014;-60
2023/07/17 11:04:13;;;;;;;9.95;3.58;;;;;;;22.94;46.43;101687.19;7390369;19;20041;-60
2023/07/17 11:06:41;;;;;;;8.90;3.13;;;;;;;22.91;45.78;101691.06;7390925;19;20027;-60
2023/07/17 11:09:08;;;;;;;11.02;3.53;;;;;;;22.82;45.77;101690.22;7389210;19;20500;-59
2023/07/17 11:11:36;;;;;;;7.28;2.90;;;;;;;22.96;45.69;101695.94;7390557;19;20047;-60
2023/07/17 11:14:04;;;;;;;8.00;3.25;;;;;;;23.22;45.62;101703.84;7386977;19;20026;-60
2023/07/17 11:16:33;;;;;;;7.60;2.75;;;;;;;23.25;45.00;101696.22;7389133;19;20022;-60
2023/07/17 11:19:03;;;;;;;8.15;3.30;;;;;;;23.18;44.35;101695.22;7390875;19;20044;-60
2023/07/17 11:21:32;;;;;;;6.68;3.17;;;;;;;23.28;45.55;101695.06;7390968;19;20019;-60
2023/07/17 11:24:01;;;;;;;8.27;3.17;;;;;;;23.54;44.50;101698.34;7388477;19;20117;-60
2023/07/17 11:26:33;;;;;;;8.10;3.13;;;;;;;23.70;43.59;101700.16;7388032;19;20101;-59
2023/07/17 11:29:02;;;;;;;6.75;2.70;;;;;;;23.67;44.19;101697.81;7390251;19;20039;-60
2023/07/17 11:31:32;;;;;;;11.52;2.95;;;;;;;23.25;44.07;101747.59;7389759;19;20018;-60